Time;durP1;ratioP1;P1;durP2;ratioP2;P2;SDS_P1;SDS_P2;PMS_P1;PMS_P2;Temp;Humidity;BMP_temperature;BMP_pressure;BME280_temperature;BME280_humidity;BME280_pressure;Samples;Min_cycle;Max_cycle;Signal;HPM_P1;HPM_P2
2023/06/19 00:01:28;;;;;;;10.18;8.10;;;;;;;25.07;46.07;100986.22;4990359;28;20046;-69
2023/06/19 00:03:53;;;;;;;9.15;7.40;;;;;;;25.09;46.10;100975.34;4992972;28;20041;-69
2023/06/19 00:06:19;;;;;;;9.50;7.38;;;;;;;25.06;46.08;100967.78;4988586;28;20045;-69
2023/06/19 00:08:44;;;;;;;9.05;7.43;;;;;;;25.06;46.03;100962.44;4991933;28;20046;-70
2023/06/19 00:11:10;;;;;;;8.30;6.85;;;;;;;25.00;46.05;100956.13;4982731;28;20049;-70
2023/06/19 00:13:35;;;;;;;7.05;6.35;;;;;;;25.03;46.27;100957.56;4982525;28;20039;-70
2023/06/19 00:16:01;;;;;;;9.65;7.07;;;;;;;24.97;46.10;100948.53;4986982;28;20090;-69
2023/06/19 00:18:28;;;;;;;8.38;7.13;;;;;;;25.02;46.43;100959.41;4986982;28;20295;-69
2023/06/19 00:20:55;;;;;;;9.13;6.90;;;;;;;24.99;46.08;100944.66;4986400;28;20106;-69
2023/06/19 00:23:22;;;;;;;7.88;6.55;;;;;;;25.02;46.54;100948.75;4990470;28;20042;-69
2023/06/19 00:25:47;;;;;;;7.93;6.57;;;;;;;25.03;46.32;100938.91;4976466;28;20746;-69
2023/06/19 00:28:14;;;;;;;8.32;7.10;;;;;;;25.00;46.29;100932.16;4990026;28;20043;-68
2023/06/19 00:30:41;;;;;;;8.25;7.38;;;;;;;24.96;46.39;100925.59;4992518;28;20129;-70
2023/06/19 00:33:07;;;;;;;9.90;7.38;;;;;;;24.98;46.09;100929.66;4989975;28;20053;-69
2023/06/19 00:35:33;;;;;;;8.57;7.20;;;;;;;24.98;46.25;100940.31;4974297;28;20050;-70
2023/06/19 00:38:01;;;;;;;8.40;7.50;;;;;;;24.96;46.41;100928.25;4989079;28;20042;-71
2023/06/19 00:40:28;;;;;;;8.60;6.53;;;;;;;24.98;46.08;100935.00;4989478;28;20324;-71
2023/06/19 00:42:54;;;;;;;8.50;7.18;;;;;;;24.91;46.05;100923.53;4974550;28;20394;-71
2023/06/19 00:45:20;;;;;;;8.95;7.00;;;;;;;24.97;46.30;100928.03;4988747;28;20038;-71
2023/06/19 00:47:46;;;;;;;10.63;7.32;;;;;;;24.97;46.22;100924.56;4973457;28;20053;-70
2023/06/19 00:50:12;;;;;;;8.05;6.75;;;;;;;24.97;46.42;100919.22;4987671;28;20319;-71
2023/06/19 00:52:37;;;;;;;9.10;7.32;;;;;;;24.94;46.46;100912.44;4995376;28;20042;-70
2023/06/19 00:55:05;;;;;;;9.35;6.78;;;;;;;24.95;46.36;100907.94;4980375;28;20039;-70
2023/06/19 00:57:31;;;;;;;7.97;7.03;;;;;;;24.95;46.34;100905.28;4993118;28;20046;-70
2023/06/19 00:59:58;;;;;;;8.02;6.82;;;;;;;24.93;46.26;100899.34;4971289;28;20129;-70
2023/06/19 01:02:25;;;;;;;9.82;7.50;;;;;;;24.94;46.25;100901.78;4975365;28;20424;-71
2023/06/19 01:04:52;;;;;;;7.88;6.95;;;;;;;24.94;46.31;100893.81;4992794;28;20041;-70
2023/06/19 01:07:33;;;;;;;8.82;7.20;;;;;;;24.94;46.01;100893.00;4987650;28;20034;-71
2023/06/19 01:10:06;;;;;;;10.35;7.55;;;;;;;24.93;46.05;100897.50;4988653;28;20038;-70
2023/06/19 01:12:40;;;;;;;8.10;6.85;;;;;;;24.92;45.99;100895.06;4973343;28;20027;-70
2023/06/19 01:15:08;;;;;;;9.07;6.80;;;;;;;24.90;45.90;100889.13;4989508;28;20036;-70
2023/06/19 01:17:35;;;;;;;7.30;6.60;;;;;;;24.91;46.27;100902.22;4983021;28;20058;-71
2023/06/19 01:20:06;;;;;;;9.45;7.70;;;;;;;24.93;46.17;100897.50;4971454;28;20050;-71
2023/06/19 01:22:32;;;;;;;7.75;6.60;;;;;;;24.93;46.17;100899.34;4987617;28;20053;-70
2023/06/19 01:24:58;;;;;;;9.38;7.13;;;;;;;24.91;45.97;100902.22;4985967;28;20035;-71
2023/06/19 01:27:25;;;;;;;9.80;7.13;;;;;;;24.92;45.82;100903.03;4974406;28;20045;-71
2023/06/19 01:29:53;;;;;;;8.65;7.13;;;;;;;24.90;46.07;100900.59;4986204;28;20034;-71
2023/06/19 01:32:29;;;;;;;8.30;7.00;;;;;;;24.91;46.15;100893.41;4958159;28;20054;-71
2023/06/19 01:34:57;;;;;;;9.75;7.57;;;;;;;24.91;46.12;100890.75;4983223;28;20112;-71
2023/06/19 01:37:28;;;;;;;9.43;7.85;;;;;;;24.90;46.15;100891.78;4983518;28;20042;-71
2023/06/19 01:39:59;;;;;;;9.32;7.05;;;;;;;24.87;46.01;100879.72;4991617;28;20085;-70
2023/06/19 01:42:26;;;;;;;9.18;7.38;;;;;;;24.89;46.15;100874.97;4978128;28;20053;-70
2023/06/19 01:44:52;;;;;;;9.38;7.03;;;;;;;24.88;46.30;100878.69;4972256;28;20042;-71
2023/06/19 01:47:19;;;;;;;9.02;7.03;;;;;;;24.88;45.86;100881.34;4960127;28;20091;-70
2023/06/19 01:49:49;;;;;;;8.80;7.45;;;;;;;24.89;45.96;100871.50;4991212;28;20042;-71
2023/06/19 01:52:14;;;;;;;9.45;7.32;;;;;;;24.88;45.84;100862.69;4992192;28;20136;-69
2023/06/19 01:54:40;;;;;;;8.23;6.82;;;;;;;24.88;46.17;100862.69;4977478;28;20042;-69
2023/06/19 01:57:06;;;;;;;7.88;6.38;;;;;;;24.88;46.02;100864.53;4997607;28;20041;-69
2023/06/19 01:59:32;;;;;;;8.95;6.75;;;;;;;24.88;45.84;100868.03;4972441;28;20025;-69
2023/06/19 02:01:57;;;;;;;8.73;7.00;;;;;;;24.87;45.78;100866.41;4974913;28;20302;-68
2023/06/19 02:04:23;;;;;;;8.50;7.18;;;;;;;24.88;45.82;100865.38;4987795;28;20035;-69
2023/06/19 02:06:48;;;;;;;9.30;7.97;;;;;;;24.89;45.94;100866.19;4973863;28;20066;-70
2023/06/19 02:09:14;;;;;;;8.15;6.85;;;;;;;24.87;45.99;100865.56;4970818;28;20033;-69
2023/06/19 02:11:40;;;;;;;9.93;6.68;;;;;;;24.85;45.64;100857.81;4972723;28;20038;-70
2023/06/19 02:14:05;;;;;;;9.57;6.85;;;;;;;24.86;45.63;100859.44;4995096;28;20396;-69
2023/06/19 02:16:31;;;;;;;8.07;6.82;;;;;;;24.86;45.85;100856.78;4973622;28;20054;-69
2023/06/19 02:18:56;;;;;;;7.95;6.88;;;;;;;24.86;45.80;100855.97;4990973;28;20073;-69
2023/06/19 02:21:22;;;;;;;9.15;7.28;;;;;;;24.86;45.83;100856.78;4990310;28;20042;-69
2023/06/19 02:23:48;;;;;;;7.85;7.03;;;;;;;24.86;45.85;100856.78;5001020;28;20399;-69
2023/06/19 02:26:13;;;;;;;8.77;7.13;;;;;;;24.86;45.63;100858.63;4991407;28;20089;-69
2023/06/19 02:28:39;;;;;;;9.25;6.72;;;;;;;24.86;45.62;100862.09;4983664;28;20622;-69
2023/06/19 02:31:05;;;;;;;8.27;7.22;;;;;;;24.87;45.38;100862.91;4982593;28;20045;-68
2023/06/19 02:33:32;;;;;;;8.55;7.18;;;;;;;24.85;45.80;100851.66;4976766;28;20048;-69
2023/06/19 02:35:58;;;;;;;9.50;7.18;;;;;;;24.84;45.94;100853.50;4991796;28;20185;-69
2023/06/19 02:38:30;;;;;;;9.07;7.03;;;;;;;24.85;45.73;100862.31;4992626;28;20038;-69
2023/06/19 02:41:01;;;;;;;11.73;7.03;;;;;;;24.82;45.69;100854.75;4981392;28;20048;-69
2023/06/19 02:43:26;;;;;;;9.90;7.32;;;;;;;24.84;45.67;100852.69;4993037;28;20042;-69
2023/06/19 02:45:52;;;;;;;9.05;7.30;;;;;;;24.85;45.62;100855.13;4983858;28;20627;-69
2023/06/19 02:48:17;;;;;;;11.48;6.95;;;;;;;24.84;45.50;100853.50;4977669;28;20041;-69
2023/06/19 02:50:43;;;;;;;10.70;7.38;;;;;;;24.83;45.48;100856.38;4977427;28;20034;-69
2023/06/19 02:53:08;;;;;;;9.35;7.22;;;;;;;24.82;45.46;100858.22;5002351;28;20078;-70
2023/06/19 02:55:34;;;;;;;8.40;6.43;;;;;;;24.83;45.45;100862.53;4997467;28;20069;-70
2023/06/19 02:58:00;;;;;;;9.45;6.60;;;;;;;24.83;45.64;100861.72;4977620;28;20038;-70
2023/06/19 03:00:28;;;;;;;10.82;7.93;;;;;;;24.83;45.33;100856.38;4989288;28;20046;-70
2023/06/19 03:02:54;;;;;;;8.45;6.88;;;;;;;24.84;45.53;100860.69;4973852;28;20038;-70
2023/06/19 03:05:19;;;;;;;10.32;7.63;;;;;;;24.83;45.18;100862.53;4990703;28;20685;-70
2023/06/19 03:07:45;;;;;;;8.75;7.07;;;;;;;24.82;45.48;100874.22;4991122;28;20041;-71
2023/06/19 03:10:11;;;;;;;9.75;7.97;;;;;;;24.83;45.24;100864.38;4989965;28;20038;-69
2023/06/19 03:12:36;;;;;;;8.63;7.10;;;;;;;24.82;45.21;100857.41;4970443;28;20046;-69
2023/06/19 03:15:02;;;;;;;9.93;7.57;;;;;;;24.80;45.25;100868.28;4974409;28;20035;-69
2023/06/19 03:17:31;;;;;;;8.30;7.00;;;;;;;24.81;45.37;100880.56;4990392;28;20054;-70
2023/06/19 03:19:56;;;;;;;8.15;6.93;;;;;;;24.81;45.18;100874.44;4988354;28;20038;-70
2023/06/19 03:22:22;;;;;;;9.00;7.03;;;;;;;24.81;45.26;100875.25;4977575;28;20109;-69
2023/06/19 03:24:49;;;;;;;8.65;7.00;;;;;;;24.81;45.33;100861.09;4978320;28;20038;-69
2023/06/19 03:27:18;;;;;;;9.95;7.15;;;;;;;24.82;44.90;100870.72;4958197;28;20076;-69
2023/06/19 03:29:44;;;;;;;8.35;6.93;;;;;;;24.79;45.23;100871.97;4982142;28;20049;-69
2023/06/19 03:32:13;;;;;;;8.13;7.10;;;;;;;24.80;45.05;100868.28;4987747;28;20031;-69
2023/06/19 03:34:39;;;;;;;10.50;7.68;;;;;;;24.79;45.23;100877.31;4993861;28;20404;-69
2023/06/19 03:37:07;;;;;;;9.30;7.07;;;;;;;24.80;44.92;100884.25;4971953;28;20042;-68
2023/06/19 03:39:34;;;;;;;8.55;6.90;;;;;;;24.81;45.05;100880.56;4972147;28;20434;-69
2023/06/19 03:42:05;;;;;;;8.82;7.57;;;;;;;24.69;45.04;100860.94;4970996;28;20080;-68
2023/06/19 03:44:31;;;;;;;9.52;7.70;;;;;;;24.80;44.90;100884.25;4977112;28;20039;-68
2023/06/19 03:46:57;;;;;;;9.93;7.63;;;;;;;24.80;45.09;100884.25;4993409;28;20240;-67
2023/06/19 03:49:23;;;;;;;10.43;7.05;;;;;;;24.76;44.97;100874.22;4973379;28;20038;-68
2023/06/19 03:51:49;;;;;;;9.13;6.80;;;;;;;24.78;44.99;100886.31;4972024;28;20106;-68
2023/06/19 03:54:15;;;;;;;9.77;7.43;;;;;;;24.79;45.10;100889.81;4974741;28;20038;-68
2023/06/19 03:56:40;;;;;;;8.30;7.28;;;;;;;24.77;44.92;100886.50;4970446;28;20317;-69
2023/06/19 03:59:06;;;;;;;8.75;7.05;;;;;;;24.79;45.03;100890.63;4971381;28;20361;-69
2023/06/19 04:01:31;;;;;;;9.38;7.55;;;;;;;24.75;44.91;100886.72;4989517;28;20053;-67
2023/06/19 04:03:57;;;;;;;10.70;7.72;;;;;;;24.79;45.06;100903.94;4972321;28;20035;-69
2023/06/19 04:06:23;;;;;;;9.55;7.53;;;;;;;24.78;44.99;100896.97;4976496;28;20034;-69
2023/06/19 04:08:48;;;;;;;8.25;7.05;;;;;;;24.76;45.01;100893.69;4989381;28;20041;-69
2023/06/19 04:11:14;;;;;;;9.65;6.95;;;;;;;24.81;45.04;100901.06;4985395;28;20444;-69
2023/06/19 04:13:39;;;;;;;8.90;6.78;;;;;;;24.80;44.92;100899.41;4991070;28;20038;-68
2023/06/19 04:16:05;;;;;;;9.50;7.88;;;;;;;24.80;45.02;100891.44;4991044;28;20121;-69
2023/06/19 04:18:31;;;;;;;8.80;6.85;;;;;;;24.79;45.11;100895.94;4987167;28;20045;-68
2023/06/19 04:20:56;;;;;;;9.20;6.70;;;;;;;24.77;45.15;100889.16;4996221;28;20072;-68
2023/06/19 04:23:22;;;;;;;8.85;6.93;;;;;;;24.80;45.20;100896.75;4992075;28;20042;-69
2023/06/19 04:25:48;;;;;;;8.27;6.85;;;;;;;24.80;45.06;100884.25;4975686;28;20046;-69
2023/06/19 04:28:13;;;;;;;8.10;6.82;;;;;;;24.80;45.04;100896.75;4976617;28;20050;-69
2023/06/19 04:30:39;;;;;;;8.68;6.90;;;;;;;24.82;44.98;100889.38;4996029;28;20113;-69
2023/06/19 04:33:06;;;;;;;9.10;7.00;;;;;;;24.82;45.09;100889.38;5005411;28;20029;-68
2023/06/19 04:35:32;;;;;;;8.60;6.85;;;;;;;24.81;45.19;100887.75;4978911;28;20049;-69
2023/06/19 04:38:00;;;;;;;9.02;6.63;;;;;;;24.82;45.09;100897.38;5007548;28;20198;-68
2023/06/19 04:40:27;;;;;;;7.93;5.90;;;;;;;24.81;45.09;100909.03;4995648;28;20041;-69
2023/06/19 04:42:53;;;;;;;7.15;6.13;;;;;;;24.78;45.13;100902.31;4977856;28;21096;-69
2023/06/19 04:45:19;;;;;;;8.13;5.95;;;;;;;24.81;45.15;100909.88;4997402;28;20097;-69
2023/06/19 04:47:45;;;;;;;7.88;6.30;;;;;;;24.81;45.19;100907.19;5002862;28;21581;-69
2023/06/19 04:50:11;;;;;;;7.22;5.88;;;;;;;24.83;44.99;100913.13;4993325;28;20057;-68
2023/06/19 04:52:37;;;;;;;7.50;5.75;;;;;;;24.81;45.10;100915.19;4997024;28;20049;-68
2023/06/19 04:55:05;;;;;;;7.50;6.00;;;;;;;24.81;45.20;100919.69;4994076;28;20046;-68
2023/06/19 04:57:31;;;;;;;7.32;5.82;;;;;;;24.82;44.90;100922.16;4995435;28;20513;-69
2023/06/19 04:59:56;;;;;;;7.90;5.97;;;;;;;24.80;45.17;100913.56;4996953;28;20045;-69
2023/06/19 05:02:23;;;;;;;7.25;5.68;;;;;;;24.82;45.05;100916.00;4981844;28;20042;-69
2023/06/19 05:04:49;;;;;;;6.65;5.75;;;;;;;24.79;45.28;100919.91;4991723;28;20042;-68
2023/06/19 05:07:17;;;;;;;6.07;5.35;;;;;;;24.82;45.32;100924.00;4993900;28;20038;-68
2023/06/19 05:09:43;;;;;;;7.07;5.32;;;;;;;24.82;45.26;100922.16;4989133;28;20030;-68
2023/06/19 05:12:09;;;;;;;7.05;5.50;;;;;;;24.84;45.36;100937.91;4997187;28;20538;-68
2023/06/19 05:14:35;;;;;;;7.22;5.40;;;;;;;24.84;45.21;100933.41;4991941;28;20042;-69
2023/06/19 05:17:00;;;;;;;5.95;5.00;;;;;;;24.84;45.22;100929.94;4995007;28;20075;-68
2023/06/19 05:19:26;;;;;;;6.88;5.38;;;;;;;24.86;45.35;100939.34;4988143;28;20031;-67
2023/06/19 05:21:51;;;;;;;6.75;5.10;;;;;;;24.85;45.38;100934.22;4992846;28;20056;-69
2023/06/19 05:24:17;;;;;;;5.93;4.70;;;;;;;24.86;45.35;100942.00;4993667;28;20038;-68
2023/06/19 05:26:42;;;;;;;8.45;4.97;;;;;;;24.87;45.28;100937.50;4993134;28;20046;-69
2023/06/19 05:29:08;;;;;;;6.18;5.25;;;;;;;24.88;45.33;100939.94;4990280;28;20416;-66
2023/06/19 05:31:35;;;;;;;8.10;5.00;;;;;;;24.86;45.30;100938.53;4991520;28;20048;-68
2023/06/19 05:34:00;;;;;;;7.93;5.43;;;;;;;24.89;45.38;100946.09;4973662;28;20141;-69
2023/06/19 05:36:26;;;;;;;7.45;5.32;;;;;;;24.90;45.36;100948.53;4978834;28;20042;-69
2023/06/19 05:38:51;;;;;;;8.55;5.47;;;;;;;24.90;45.79;100951.19;4991570;28;20050;-69
2023/06/19 05:41:17;;;;;;;6.93;4.70;;;;;;;24.91;45.78;100957.34;4996555;28;20038;-69
2023/06/19 05:43:43;;;;;;;7.72;5.25;;;;;;;24.91;45.70;100968.00;4997255;28;20583;-69
2023/06/19 05:46:08;;;;;;;14.02;5.50;;;;;;;24.92;45.68;100965.13;4976670;28;20037;-69
2023/06/19 05:48:34;;;;;;;6.88;4.75;;;;;;;24.92;45.92;100973.13;4995853;28;20046;-70
2023/06/19 05:51:02;;;;;;;6.70;4.75;;;;;;;24.91;46.03;100963.50;4993134;28;20449;-69
2023/06/19 05:53:28;;;;;;;7.53;4.53;;;;;;;24.95;45.90;100969.22;4991521;28;20045;-69
2023/06/19 05:55:53;;;;;;;7.57;4.70;;;;;;;24.95;46.03;100967.38;4992976;28;20054;-69
2023/06/19 05:58:21;;;;;;;6.03;4.55;;;;;;;24.95;46.03;100974.53;4995865;28;21820;-70
2023/06/19 06:00:47;;;;;;;6.45;4.50;;;;;;;24.94;46.36;100971.06;4990305;28;20096;-70
2023/06/19 06:03:13;;;;;;;6.88;4.28;;;;;;;24.89;46.40;100972.72;4975777;28;20381;-69
2023/06/19 06:05:39;;;;;;;6.35;4.82;;;;;;;24.93;46.00;100969.41;4994699;28;20050;-69
2023/06/19 06:08:04;;;;;;;5.75;4.53;;;;;;;24.94;46.30;100980.91;4999807;28;20038;-69
2023/06/19 06:10:30;;;;;;;5.47;4.47;;;;;;;24.94;46.36;100995.03;4997345;28;20038;-69
2023/06/19 06:12:55;;;;;;;7.00;4.70;;;;;;;24.93;46.27;100985.41;4992443;28;20080;-70
2023/06/19 06:15:21;;;;;;;6.75;4.30;;;;;;;24.93;46.60;100974.75;4979099;28;20523;-70
2023/06/19 06:17:47;;;;;;;8.07;5.07;;;;;;;24.96;46.79;100985.00;4962351;28;20413;-71
2023/06/19 06:20:12;;;;;;;6.47;4.25;;;;;;;24.96;47.08;101001.00;4973426;28;20034;-69
2023/06/19 06:22:42;;;;;;;5.57;4.32;;;;;;;24.96;46.39;101003.66;4968435;28;22238;-68
2023/06/19 06:25:11;;;;;;;6.13;4.50;;;;;;;24.97;46.21;100999.97;4968173;28;20042;-69
2023/06/19 06:27:37;;;;;;;5.35;3.85;;;;;;;25.00;46.25;100998.75;4968489;28;20047;-69
2023/06/19 06:30:03;;;;;;;5.28;3.95;;;;;;;25.00;46.42;101001.41;4974118;28;20046;-68
2023/06/19 06:32:30;;;;;;;6.30;4.15;;;;;;;25.02;46.28;101006.53;4972914;28;20142;-68
2023/06/19 06:34:57;;;;;;;6.32;4.38;;;;;;;25.02;46.00;101004.69;4973738;28;20042;-69
2023/06/19 06:37:22;;;;;;;7.18;4.38;;;;;;;25.04;46.06;100999.97;4977831;28;20039;-70
2023/06/19 06:39:49;;;;;;;7.13;4.25;;;;;;;25.04;45.83;101002.63;4971365;28;20035;-69
2023/06/19 06:42:15;;;;;;;5.53;4.10;;;;;;;25.03;45.69;101002.84;4967506;28;20564;-68
2023/06/19 06:44:41;;;;;;;5.63;4.18;;;;;;;25.03;46.05;100998.34;4974155;28;20027;-67
2023/06/19 06:47:06;;;;;;;5.55;4.57;;;;;;;25.05;45.95;101009.59;4967378;28;20393;-68
2023/06/19 06:49:32;;;;;;;5.10;3.88;;;;;;;25.02;46.16;101007.34;4971918;28;20065;-67
2023/06/19 06:51:57;;;;;;;5.38;4.20;;;;;;;25.03;46.10;101019.66;4974446;28;20038;-67
2023/06/19 06:54:23;;;;;;;6.38;4.75;;;;;;;25.02;46.04;101030.50;4974213;28;20525;-67
2023/06/19 06:56:48;;;;;;;5.07;3.88;;;;;;;25.02;45.99;101027.84;4971212;28;21665;-68
2023/06/19 06:59:16;;;;;;;5.70;3.70;;;;;;;25.02;46.10;101030.50;4971709;28;20038;-68
2023/06/19 07:01:42;;;;;;;5.63;4.13;;;;;;;25.01;46.18;101037.69;4952208;28;20062;-66
2023/06/19 07:04:07;;;;;;;4.72;3.92;;;;;;;25.00;46.20;101038.72;4970966;28;20038;-67
2023/06/19 07:06:33;;;;;;;4.25;3.75;;;;;;;24.98;45.73;101032.75;4969011;28;20418;-68
2023/06/19 07:08:59;;;;;;;5.07;3.75;;;;;;;24.97;45.88;101033.78;4968587;28;20127;-76
2023/06/19 07:11:24;;;;;;;6.05;4.20;;;;;;;24.97;45.88;101041.78;4976199;28;20038;-77
2023/06/19 07:13:50;;;;;;;5.97;4.25;;;;;;;24.97;46.19;101042.59;4975695;28;20049;-77
2023/06/19 07:16:15;;;;;;;5.38;4.53;;;;;;;24.93;46.21;101037.88;4974331;28;20066;-77
2023/06/19 07:18:41;;;;;;;4.35;3.40;;;;;;;24.95;46.07;101051.78;4987742;28;20058;-77
2023/06/19 07:21:12;;;;;;;5.68;4.10;;;;;;;24.95;46.25;101057.13;4984218;28;20046;-76
2023/06/19 07:23:40;;;;;;;5.20;4.00;;;;;;;24.96;45.83;101059.59;4993758;28;20124;-76
2023/06/19 07:26:05;;;;;;;4.75;3.97;;;;;;;24.95;46.05;101057.94;4993627;28;20064;-77
2023/06/19 07:28:31;;;;;;;4.38;3.72;;;;;;;24.96;46.03;101064.94;4995688;28;20110;-76
2023/06/19 07:30:56;;;;;;;4.75;3.85;;;;;;;24.95;46.23;101070.44;4989918;28;20077;-76
2023/06/19 07:33:22;;;;;;;5.88;4.43;;;;;;;24.95;46.25;101067.78;4987235;28;20038;-76
2023/06/19 07:35:47;;;;;;;5.13;3.97;;;;;;;24.94;46.08;101066.16;4994090;28;20031;-76
2023/06/19 07:38:13;;;;;;;5.28;4.25;;;;;;;24.97;46.36;101074.56;4991502;28;20481;-75
2023/06/19 07:40:38;;;;;;;4.70;4.00;;;;;;;24.98;46.14;101070.06;4999428;28;20049;-76
2023/06/19 07:43:04;;;;;;;5.43;4.32;;;;;;;24.98;46.21;101072.72;4977738;28;20045;-76
2023/06/19 07:45:29;;;;;;;4.90;3.88;;;;;;;24.99;46.27;101071.69;4995885;28;20350;-76
2023/06/19 07:47:56;;;;;;;7.18;3.97;;;;;;;24.99;46.08;101082.34;4989547;28;20051;-75
2023/06/19 07:50:22;;;;;;;5.22;4.20;;;;;;;25.01;46.05;101075.00;4991011;28;20049;-76
2023/06/19 07:52:48;;;;;;;5.22;4.00;;;;;;;25.03;45.97;101088.09;4992498;28;20046;-76
2023/06/19 07:55:13;;;;;;;5.40;4.00;;;;;;;25.02;46.05;101071.31;4993604;28;20492;-75
2023/06/19 07:57:39;;;;;;;5.30;4.05;;;;;;;25.03;46.32;101086.25;4997386;28;20042;-77
2023/06/19 08:00:10;;;;;;;5.65;4.15;;;;;;;25.04;46.05;101090.56;4994056;28;20038;-76
2023/06/19 08:02:37;;;;;;;5.97;4.53;;;;;;;25.02;46.16;101079.28;4988988;28;20128;-76
2023/06/19 08:05:03;;;;;;;5.68;4.07;;;;;;;25.03;45.96;101096.91;4992060;28;20039;-76
2023/06/19 08:07:29;;;;;;;6.72;4.47;;;;;;;25.01;45.86;101093.63;4998325;28;20066;-76
2023/06/19 08:09:54;;;;;;;6.68;4.35;;;;;;;25.00;46.12;101100.00;4994646;28;20027;-76
2023/06/19 08:12:20;;;;;;;6.47;4.07;;;;;;;25.00;46.06;101102.66;4991602;28;20646;-75
2023/06/19 08:14:46;;;;;;;5.10;3.67;;;;;;;25.00;46.36;101111.47;4993733;28;20039;-77
2023/06/19 08:17:11;;;;;;;3.90;3.50;;;;;;;25.00;46.26;101108.81;4991041;28;20094;-76
2023/06/19 08:19:38;;;;;;;4.70;3.90;;;;;;;25.00;46.23;101113.31;4995640;28;20034;-76
2023/06/19 08:22:05;;;;;;;4.63;3.60;;;;;;;24.98;46.44;101115.34;4989379;28;20378;-77
2023/06/19 08:24:31;;;;;;;4.85;4.07;;;;;;;25.00;46.04;101121.31;4992708;28;20037;-77
2023/06/19 08:26:56;;;;;;;6.43;4.20;;;;;;;25.02;46.20;101123.75;4987742;28;20046;-77
2023/06/19 08:29:23;;;;;;;4.57;4.10;;;;;;;25.02;46.05;101139.75;4989775;28;20082;-77
2023/06/19 08:31:48;;;;;;;5.25;3.80;;;;;;;25.01;46.08;101133.59;4996455;28;20052;-76
2023/06/19 08:34:14;;;;;;;5.18;3.67;;;;;;;25.03;46.18;101141.38;4989613;28;20517;-77
2023/06/19 08:36:39;;;;;;;5.50;4.15;;;;;;;25.01;46.22;101152.25;4974736;28;20041;-77
2023/06/19 08:39:07;;;;;;;5.00;4.13;;;;;;;25.04;46.16;101156.34;4990759;28;20038;-77
2023/06/19 08:41:33;;;;;;;5.30;3.95;;;;;;;25.03;46.04;101147.53;4990560;28;20077;-77
2023/06/19 08:43:59;;;;;;;4.90;3.63;;;;;;;25.03;46.34;101147.53;4991437;28;20053;-77
2023/06/19 08:46:24;;;;;;;6.22;3.70;;;;;;;25.02;46.25;101153.91;4997975;28;20038;-77
2023/06/19 08:48:54;;;;;;;4.65;3.80;;;;;;;25.04;46.13;101159.84;4969766;28;20298;-77
2023/06/19 08:51:19;;;;;;;5.82;3.80;;;;;;;25.04;45.94;101170.50;4995725;28;20039;-77
2023/06/19 08:53:56;;;;;;;4.97;4.07;;;;;;;25.00;46.12;101155.94;4995667;28;20042;-77
2023/06/19 08:56:22;;;;;;;4.15;3.55;;;;;;;25.04;45.91;101183.81;4993233;28;20088;-76
2023/06/19 08:58:48;;;;;;;4.88;4.10;;;;;;;25.07;46.12;101171.91;4991798;28;20038;-76
2023/06/19 09:01:18;;;;;;;5.95;3.78;;;;;;;25.06;46.26;101172.94;4973332;28;20349;-77
2023/06/19 09:03:46;;;;;;;5.55;3.95;;;;;;;25.06;46.25;101180.94;4985633;28;20035;-77
2023/06/19 09:06:15;;;;;;;4.28;3.70;;;;;;;25.07;46.21;101177.25;4989186;28;20089;-77
2023/06/19 09:08:41;;;;;;;4.75;3.85;;;;;;;25.07;46.30;101180.72;4987868;28;20433;-76
2023/06/19 09:11:07;;;;;;;4.30;3.78;;;;;;;25.09;45.93;101180.53;4988695;28;20046;-76
2023/06/19 09:13:32;;;;;;;8.27;4.28;;;;;;;25.09;45.95;101181.34;4996803;28;20042;-77
2023/06/19 09:16:05;;;;;;;4.40;3.53;;;;;;;25.06;46.17;101191.59;4992290;28;20110;-76
2023/06/19 09:18:41;;;;;;;5.75;3.72;;;;;;;25.11;46.06;101191.78;4990098;28;20122;-77
2023/06/19 09:21:14;;;;;;;4.82;3.53;;;;;;;25.11;45.94;101197.94;4989529;28;20034;-76
2023/06/19 09:23:39;;;;;;;4.88;3.50;;;;;;;25.13;45.92;101193.22;4987913;28;20073;-76
2023/06/19 09:26:06;;;;;;;4.63;3.53;;;;;;;25.15;46.11;101201.03;4996240;28;20038;-77
2023/06/19 09:28:40;;;;;;;4.97;3.10;;;;;;;25.16;45.97;101195.50;4974181;28;20065;-76
2023/06/19 09:31:06;;;;;;;5.05;4.35;;;;;;;25.19;45.88;101204.94;4975202;28;20125;-76
2023/06/19 09:33:34;;;;;;;4.30;3.25;;;;;;;25.19;45.63;101197.75;4993635;28;20034;-76
2023/06/19 09:36:01;;;;;;;4.38;3.83;;;;;;;25.19;45.72;101208.41;4991133;28;20058;-76
2023/06/19 09:38:29;;;;;;;4.70;3.75;;;;;;;25.17;45.81;101205.13;4995235;28;20046;-76
2023/06/19 09:40:58;;;;;;;4.75;3.50;;;;;;;25.17;45.58;101209.63;4993314;28;20046;-76
2023/06/19 09:43:25;;;;;;;5.57;3.83;;;;;;;25.13;45.71;101205.72;4989248;28;20049;-75
2023/06/19 09:45:55;;;;;;;4.70;3.70;;;;;;;25.18;46.05;101221.94;4994013;28;20026;-76
2023/06/19 09:48:26;;;;;;;4.70;3.58;;;;;;;25.18;45.67;101220.09;4989224;28;20050;-75
2023/06/19 09:50:58;;;;;;;5.65;4.22;;;;;;;25.17;45.74;101231.78;4971676;28;20034;-76
2023/06/19 09:53:24;;;;;;;4.53;3.78;;;;;;;25.21;45.96;101233.00;4988432;28;20730;-74
2023/06/19 09:55:50;;;;;;;4.10;3.42;;;;;;;25.21;45.77;101240.19;4995421;28;20048;-75
2023/06/19 09:58:18;;;;;;;4.47;3.55;;;;;;;25.21;45.77;101251.66;4993924;28;20066;-75
2023/06/19 10:00:45;;;;;;;4.60;3.90;;;;;;;25.14;45.47;101237.53;4987888;28;20042;-74
2023/06/19 10:03:14;;;;;;;6.25;3.83;;;;;;;25.24;45.89;101248.56;4985802;28;20050;-74
2023/06/19 10:05:40;;;;;;;4.90;3.87;;;;;;;25.24;45.61;101242.44;4990163;28;20042;-73
2023/06/19 10:08:06;;;;;;;6.90;4.03;;;;;;;25.18;45.66;101240.59;4994237;28;20599;-73
2023/06/19 10:10:34;;;;;;;5.75;3.92;;;;;;;25.21;45.59;101250.84;4981444;28;20125;-74
2023/06/19 10:13:12;;;;;;;5.63;3.55;;;;;;;25.23;45.49;101246.13;4995449;28;20050;-73
2023/06/19 10:15:42;;;;;;;5.18;3.72;;;;;;;25.23;45.54;101246.13;4990936;28;20046;-72
2023/06/19 10:18:18;;;;;;;4.65;4.10;;;;;;;25.25;45.24;101252.06;4992908;28;20286;-72
2023/06/19 10:20:46;;;;;;;5.00;3.75;;;;;;;25.23;45.08;101244.28;4988766;28;20046;-72
2023/06/19 10:23:17;;;;;;;5.20;3.75;;;;;;;25.30;45.04;101273.59;4988983;28;20042;-72
2023/06/19 10:25:45;;;;;;;4.75;3.75;;;;;;;25.32;45.00;101260.06;4991032;28;20035;-74
2023/06/19 10:28:22;;;;;;;10.07;4.43;;;;;;;25.31;45.20;101259.22;4995160;28;20030;-72
2023/06/19 10:30:59;;;;;;;4.65;3.80;;;;;;;25.32;45.08;101268.06;4972615;28;20046;-72
2023/06/19 10:33:29;;;;;;;5.18;3.35;;;;;;;25.30;45.23;101268.25;4993503;28;20058;-72
2023/06/19 10:35:55;;;;;;;5.15;3.88;;;;;;;25.30;45.44;101270.91;4997433;28;20053;-73
2023/06/19 10:38:20;;;;;;;4.72;4.20;;;;;;;25.31;44.99;101269.88;4993897;28;20488;-74
2023/06/19 10:40:47;;;;;;;5.20;3.78;;;;;;;25.26;45.04;101262.53;4989199;28;20066;-74
2023/06/19 10:43:21;;;;;;;6.25;4.32;;;;;;;25.33;45.15;101273.19;4994213;28;20042;-75
2023/06/19 10:45:46;;;;;;;5.55;4.18;;;;;;;25.36;44.98;101271.97;4983483;28;20844;-74
2023/06/19 10:48:19;;;;;;;4.65;3.75;;;;;;;25.35;45.12;101268.47;4993468;28;20042;-74
2023/06/19 10:50:44;;;;;;;5.68;3.95;;;;;;;25.37;45.11;101276.25;4993641;28;20082;-74
2023/06/19 10:53:10;;;;;;;4.93;3.95;;;;;;;25.35;44.90;101271.13;4988567;28;20038;-74
2023/06/19 10:55:35;;;;;;;4.90;4.03;;;;;;;25.36;44.77;101279.97;4984295;28;20145;-75
2023/06/19 10:58:01;;;;;;;5.43;3.90;;;;;;;25.35;44.88;101265.81;4990802;28;20034;-74
2023/06/19 11:00:28;;;;;;;6.88;4.25;;;;;;;25.36;45.18;101277.28;4989729;28;20120;-76
2023/06/19 11:02:53;;;;;;;5.20;4.50;;;;;;;25.36;44.99;101275.44;4970487;28;20065;-76
2023/06/19 11:05:21;;;;;;;4.78;3.78;;;;;;;25.38;45.03;101280.56;4995720;28;20038;-77
2023/06/19 11:07:58;;;;;;;7.65;4.13;;;;;;;25.38;44.79;101273.38;4993599;28;20045;-76
2023/06/19 11:10:27;;;;;;;5.47;4.10;;;;;;;25.38;44.71;101270.72;4992573;28;20065;-76
2023/06/19 11:12:55;;;;;;;5.22;4.20;;;;;;;25.38;45.15;101281.38;4994646;28;20038;-76
2023/06/19 11:15:34;;;;;;;6.30;3.83;;;;;;;25.40;44.97;101287.34;4992795;28;20860;-77
2023/06/19 11:18:01;;;;;;;4.90;4.03;;;;;;;25.41;44.86;101290.81;4980202;28;20061;-74
2023/06/19 11:20:27;;;;;;;6.18;4.40;;;;;;;25.43;44.91;101286.09;4972728;28;20276;-73
2023/06/19 11:22:58;;;;;;;5.22;4.40;;;;;;;25.42;44.82;101284.47;4971987;28;20050;-73